Time;durP1;ratioP1;P1;durP2;ratioP2;P2;SDS_P1;SDS_P2;PMS_P1;PMS_P2;Temp;Humidity;BMP_temperature;BMP_pressure;BME280_temperature;BME280_humidity;BME280_pressure;Samples;Min_cycle;Max_cycle;Signal;HPM_P1;HPM_P2
2022/12/03 00:01:27;;;;;;;12.60;7.62;;;23.40;90.40;;;;;;1780355;79;21670;-73
2022/12/03 00:03:58;;;;;;;13.60;7.58;;;23.40;90.50;;;;;;1806982;77;21120;-72
2022/12/03 00:06:29;;;;;;;13.50;7.45;;;23.40;90.50;;;;;;1829411;77;21230;-72
2022/12/03 00:09:02;;;;;;;14.15;9.00;;;23.40;90.60;;;;;;1799560;77;21148;-72
2022/12/03 00:11:34;;;;;;;16.73;9.35;;;23.40;90.50;;;;;;1784699;77;21150;-72
2022/12/03 00:14:06;;;;;;;15.48;8.28;;;23.40;90.70;;;;;;1815912;77;21571;-73
2022/12/03 00:16:37;;;;;;;12.00;7.85;;;23.40;91.10;;;;;;1769466;79;21201;-72
2022/12/03 00:19:08;;;;;;;13.03;7.53;;;23.30;91.20;;;;;;1809979;77;21165;-72
2022/12/03 00:21:38;;;;;;;13.40;7.08;;;23.30;91.40;;;;;;1810709;77;21138;-73
2022/12/03 00:24:10;;;;;;;13.55;6.65;;;23.30;91.80;;;;;;1818547;76;21215;-77
2022/12/03 00:26:41;;;;;;;12.15;6.17;;;23.20;91.90;;;;;;1785893;78;21144;-73
2022/12/03 00:29:12;;;;;;;15.10;7.20;;;23.20;92.60;;;;;;1767210;79;21219;-74
2022/12/03 00:31:44;;;;;;;10.55;5.90;;;23.20;92.30;;;;;;1743392;79;21143;-73
2022/12/03 00:34:16;;;;;;;11.22;6.80;;;23.20;92.30;;;;;;1808035;77;21207;-73
2022/12/03 00:36:47;;;;;;;12.15;6.55;;;23.20;92.40;;;;;;1810190;78;21245;-73
2022/12/03 00:39:18;;;;;;;13.00;7.62;;;23.20;92.60;;;;;;1813815;76;21155;-73
2022/12/03 00:41:49;;;;;;;15.32;8.90;;;23.20;92.60;;;;;;1778068;78;21230;-73
2022/12/03 00:44:20;;;;;;;14.40;8.53;;;23.30;92.80;;;;;;1804791;77;21736;-73
2022/12/03 00:46:51;;;;;;;16.30;7.97;;;23.30;92.80;;;;;;1806263;77;21174;-72
2022/12/03 00:49:22;;;;;;;26.07;8.53;;;23.40;92.80;;;;;;1811063;77;21122;-72
2022/12/03 00:51:53;;;;;;;10.98;7.08;;;23.40;92.50;;;;;;1760120;80;21185;-73
2022/12/03 00:54:23;;;;;;;11.90;6.87;;;23.50;92.50;;;;;;1814642;77;21254;-73
2022/12/03 00:56:55;;;;;;;10.50;6.25;;;23.50;92.40;;;;;;1783127;78;21164;-71
2022/12/03 00:59:26;;;;;;;9.08;5.65;;;23.60;92.20;;;;;;1811224;77;21154;-73
2022/12/03 01:01:57;;;;;;;13.53;5.95;;;23.60;92.10;;;;;;1810668;77;21115;-71
2022/12/03 01:04:28;;;;;;;13.40;7.12;;;23.70;91.90;;;;;;1770268;79;21226;-71
2022/12/03 01:06:59;;;;;;;12.53;7.65;;;23.70;92.00;;;;;;1797154;77;21236;-70
2022/12/03 01:09:31;;;;;;;15.63;7.42;;;23.80;91.90;;;;;;1805438;77;21208;-73
2022/12/03 01:12:02;;;;;;;14.33;7.08;;;23.80;91.90;;;;;;1767861;79;21679;-71
2022/12/03 01:14:33;;;;;;;11.53;6.50;;;23.80;91.90;;;;;;1783708;78;21204;-70
2022/12/03 01:17:06;;;;;;;10.85;6.50;;;23.90;91.70;;;;;;1810115;77;21240;-71
2022/12/03 01:19:37;;;;;;;9.75;5.60;;;23.90;91.70;;;;;;1768121;79;21244;-72
2022/12/03 01:22:09;;;;;;;12.33;6.67;;;23.90;91.70;;;;;;1786483;78;21209;-71
2022/12/03 01:24:40;;;;;;;10.43;6.22;;;23.90;91.50;;;;;;1799205;77;21850;-71
2022/12/03 01:27:11;;;;;;;12.28;6.17;;;24.00;91.60;;;;;;1802666;77;21214;-71
2022/12/03 01:29:43;;;;;;;10.08;5.65;;;24.10;91.20;;;;;;1809012;77;21144;-71
2022/12/03 01:32:18;;;;;;;10.43;5.70;;;24.10;91.20;;;;;;1779837;79;22199;-72
2022/12/03 01:34:51;;;;;;;9.78;5.75;;;24.20;91.20;;;;;;1773876;79;21225;-71
2022/12/03 01:37:25;;;;;;;13.78;6.15;;;24.20;91.10;;;;;;1791768;78;21156;-72
2022/12/03 01:39:56;;;;;;;11.95;5.58;;;24.20;91.30;;;;;;1816580;77;21142;-70
2022/12/03 01:42:32;;;;;;;8.75;5.37;;;24.20;91.00;;;;;;1769352;79;21731;-71
2022/12/03 01:45:03;;;;;;;12.80;6.53;;;24.20;91.00;;;;;;1747076;80;21613;-70
2022/12/03 01:47:36;;;;;;;10.05;5.85;;;24.30;91.00;;;;;;1758417;78;21655;-72
2022/12/03 01:50:25;;;;;;;10.32;4.70;;;24.40;90.70;;;;;;1802416;77;21115;-71
2022/12/03 01:52:59;;;;;;;9.55;4.55;;;24.50;90.40;;;;;;1797409;77;21225;-71
2022/12/03 01:55:30;;;;;;;9.58;4.83;;;24.60;90.10;;;;;;1792689;77;21255;-71
2022/12/03 01:58:03;;;;;;;10.32;6.05;;;24.80;89.80;;;;;;1803119;77;21183;-71
2022/12/03 02:00:33;;;;;;;6.70;4.55;;;24.90;89.20;;;;;;1798463;77;21214;-72
2022/12/03 02:03:09;;;;;;;11.60;5.90;;;25.00;89.00;;;;;;1817670;77;21136;-71
2022/12/03 02:05:40;;;;;;;10.32;5.90;;;25.10;88.30;;;;;;1827894;77;21151;-70
2022/12/03 02:08:33;;;;;;;8.95;5.35;;;25.10;88.10;;;;;;1808045;77;22050;-71
2022/12/03 02:11:15;;;;;;;11.90;6.30;;;25.20;87.80;;;;;;1810936;78;21259;-71
2022/12/03 02:13:48;;;;;;;9.45;5.40;;;25.30;88.00;;;;;;1804767;77;21199;-71
2022/12/03 02:16:20;;;;;;;9.53;5.35;;;25.30;87.40;;;;;;1794191;78;21176;-72
2022/12/03 02:18:51;;;;;;;8.25;5.72;;;25.30;87.20;;;;;;1808352;77;21183;-71
2022/12/03 02:21:38;;;;;;;8.68;5.33;;;25.40;86.90;;;;;;1826084;77;21186;-71
2022/12/03 02:24:35;;;;;;;17.80;6.60;;;25.40;86.50;;;;;;1827207;77;21151;-71
2022/12/03 02:27:12;;;;;;;18.40;6.45;;;25.40;86.50;;;;;;1772737;78;21265;-72
2022/12/03 02:29:40;;;;;;;23.70;6.20;;;25.50;86.70;;;;;;1830792;76;21259;-72
2022/12/03 02:32:11;;;;;;;7.53;4.30;;;25.50;86.50;;;;;;1801524;78;21143;-72
2022/12/03 02:34:46;;;;;;;5.45;3.62;;;25.60;86.10;;;;;;1789784;78;21245;-70
2022/12/03 02:37:20;;;;;;;7.92;3.45;;;25.70;85.10;;;;;;1817877;77;21696;-72
2022/12/03 02:39:57;;;;;;;7.45;3.70;;;25.70;84.60;;;;;;1799710;78;21768;-71
2022/12/03 02:42:34;;;;;;;6.28;3.85;;;25.80;85.10;;;;;;1819802;77;21673;-72
2022/12/03 02:45:14;;;;;;;6.30;4.20;;;25.80;85.00;;;;;;1781784;78;21149;-69
2022/12/03 02:47:47;;;;;;;9.45;4.72;;;25.80;85.10;;;;;;1810711;77;21095;-70
2022/12/03 02:50:21;;;;;;;6.12;4.00;;;25.90;85.50;;;;;;1811819;77;21124;-68
2022/12/03 02:52:54;;;;;;;9.60;4.42;;;25.90;85.50;;;;;;1803428;77;21209;-70
2022/12/03 02:55:26;;;;;;;9.78;4.60;;;25.90;85.20;;;;;;1810010;77;21688;-70
2022/12/03 02:57:59;;;;;;;14.30;5.17;;;26.00;85.00;;;;;;1800577;78;21185;-69
2022/12/03 03:00:30;;;;;;;6.62;3.62;;;26.00;85.10;;;;;;1813653;77;21093;-71
2022/12/03 03:03:03;;;;;;;12.80;4.70;;;26.10;84.80;;;;;;1824144;77;21617;-73
2022/12/03 03:05:36;;;;;;;10.65;4.05;;;26.20;84.80;;;;;;1822232;77;21237;-71
2022/12/03 03:08:08;;;;;;;6.15;3.80;;;26.20;84.70;;;;;;1777003;79;21245;-71
2022/12/03 03:10:41;;;;;;;9.93;4.08;;;26.30;84.70;;;;;;1803324;77;21134;-71
2022/12/03 03:13:19;;;;;;;5.75;3.65;;;26.30;84.20;;;;;;1827455;77;21531;-72
2022/12/03 03:15:50;;;;;;;12.65;4.50;;;26.40;84.20;;;;;;1814966;77;21195;-70
2022/12/03 03:18:21;;;;;;;7.50;3.80;;;26.50;84.30;;;;;;1778451;79;21192;-70
2022/12/03 03:20:53;;;;;;;6.35;3.67;;;26.70;84.10;;;;;;1807725;77;21286;-69
2022/12/03 03:23:25;;;;;;;12.03;4.50;;;26.80;83.70;;;;;;1794292;77;21751;-69
2022/12/03 03:26:04;;;;;;;5.78;3.50;;;26.80;82.80;;;;;;1799094;77;21174;-70
2022/12/03 03:28:37;;;;;;;11.35;3.47;;;26.90;82.60;;;;;;1797355;77;21646;-70
2022/12/03 03:31:11;;;;;;;4.30;2.52;;;27.00;82.10;;;;;;1761714;79;21131;-70
2022/12/03 03:33:43;;;;;;;5.33;2.50;;;27.10;81.50;;;;;;1798391;78;21145;-70
2022/12/03 03:36:17;;;;;;;4.75;2.87;;;27.20;81.30;;;;;;1797541;77;21702;-69
2022/12/03 03:38:53;;;;;;;4.75;2.90;;;27.20;81.30;;;;;;1789251;78;21155;-71
2022/12/03 03:41:27;;;;;;;6.83;3.30;;;27.30;81.00;;;;;;1813164;77;21166;-69
2022/12/03 03:44:01;;;;;;;5.53;2.70;;;27.30;80.70;;;;;;1806958;77;21632;-70
2022/12/03 03:46:33;;;;;;;3.80;2.42;;;27.40;80.50;;;;;;1792581;78;21121;-70
2022/12/03 03:49:05;;;;;;;6.00;3.08;;;27.50;80.30;;;;;;1807286;77;21851;-70
2022/12/03 03:51:37;;;;;;;10.25;4.30;;;27.60;80.10;;;;;;1801444;77;21171;-70
2022/12/03 03:54:08;;;;;;;4.58;2.50;;;27.70;80.00;;;;;;1809015;77;21207;-71
2022/12/03 03:56:42;;;;;;;6.03;2.80;;;27.80;79.60;;;;;;1810546;77;21666;-71
2022/12/03 03:59:14;;;;;;;6.40;2.87;;;28.00;79.30;;;;;;1816493;77;21432;-70
2022/12/03 04:01:45;;;;;;;6.42;2.40;;;28.10;78.80;;;;;;1824756;77;21234;-71
2022/12/03 04:04:19;;;;;;;3.60;1.60;;;28.20;77.70;;;;;;1765676;79;21688;-70
2022/12/03 04:06:51;;;;;;;2.83;1.40;;;28.30;76.80;;;;;;1752938;79;21273;-70
2022/12/03 04:09:22;;;;;;;4.95;1.80;;;28.40;77.30;;;;;;1774241;79;22676;-70
2022/12/03 04:14:41;;;;;;;3.22;1.70;;;28.50;76.50;;;;;;1817413;77;21190;-71
2022/12/03 04:17:12;;;;;;;4.12;1.90;;;28.60;76.20;;;;;;1805375;77;21088;-70
2022/12/03 04:19:44;;;;;;;3.30;1.70;;;28.70;75.50;;;;;;1825687;77;21190;-71
2022/12/03 04:30:43;;;;;;;4.55;1.47;;;29.10;74.90;;;;;;1828975;77;21166;-72
2022/12/03 04:36:02;;;;;;;3.45;1.40;;;29.30;74.00;;;;;;1812660;77;21584;-71
2022/12/03 04:38:33;;;;;;;3.42;1.57;;;29.40;74.00;;;;;;1826209;77;21215;-71
2022/12/03 04:41:04;;;;;;;4.60;1.15;;;29.50;74.40;;;;;;1832392;77;21249;-70
2022/12/03 04:44:31;;;;;;;3.62;1.40;;;29.60;73.80;;;;;;1819383;77;21184;-70
2022/12/03 04:46:08;;;;;;;2.42;1.47;;;29.70;73.00;;;;;;1788809;77;21117;-72
2022/12/03 04:48:39;;;;;;;2.30;1.30;;;29.70;72.80;;;;;;1787681;79;21247;-71
2022/12/03 04:51:11;;;;;;;7.33;1.57;;;29.80;72.40;;;;;;1825659;77;21619;-72
2022/12/03 04:53:42;;;;;;;3.00;1.60;;;29.80;72.40;;;;;;1815688;77;21225;-71
2022/12/03 04:56:14;;;;;;;4.03;1.60;;;29.90;72.80;;;;;;1832968;77;21146;-71
2022/12/03 04:58:45;;;;;;;4.17;1.70;;;30.00;71.90;;;;;;1830509;77;21231;-70
2022/12/03 05:01:15;;;;;;;3.30;1.72;;;30.10;71.80;;;;;;1788041;78;21254;-71
2022/12/03 05:03:47;;;;;;;4.47;1.80;;;30.20;71.10;;;;;;1755471;79;21170;-70
2022/12/03 05:06:18;;;;;;;3.58;1.75;;;30.20;70.80;;;;;;1811758;77;21175;-70
2022/12/03 05:08:50;;;;;;;4.22;1.87;;;30.20;71.20;;;;;;1802408;78;21611;-71
2022/12/03 05:11:20;;;;;;;4.75;1.98;;;30.30;70.80;;;;;;1824411;77;21192;-70
2022/12/03 05:13:51;;;;;;;4.00;2.12;;;30.40;70.80;;;;;;1800993;77;21221;-70
2022/12/03 05:16:22;;;;;;;3.20;1.80;;;30.50;70.50;;;;;;1835693;77;21165;-70
2022/12/03 05:18:56;;;;;;;4.22;1.55;;;30.50;70.10;;;;;;1812111;77;21143;-71
2022/12/03 05:21:26;;;;;;;2.22;1.37;;;30.50;70.50;;;;;;1810506;78;21157;-71
2022/12/03 05:23:57;;;;;;;1.52;1.00;;;30.50;69.40;;;;;;1794770;78;21626;-70
2022/12/03 05:26:27;;;;;;;2.52;1.40;;;30.50;69.80;;;;;;1820378;77;21248;-71
2022/12/03 05:28:58;;;;;;;3.70;1.50;;;30.40;70.60;;;;;;1812566;78;21196;-71
2022/12/03 05:31:29;;;;;;;2.75;1.57;;;30.30;70.30;;;;;;1785779;79;21190;-70
2022/12/03 05:34:02;;;;;;;3.05;1.77;;;30.30;70.40;;;;;;1831707;77;21098;-69
2022/12/03 05:36:32;;;;;;;6.10;1.95;;;30.20;70.50;;;;;;1828995;77;21701;-69
2022/12/03 05:39:03;;;;;;;3.75;1.70;;;30.20;70.80;;;;;;1790908;78;21120;-70
2022/12/03 05:44:25;;;;;;;2.00;1.20;;;30.20;71.20;;;;;;1783049;79;21225;-70
2022/12/03 05:47:15;;;;;;;3.77;1.30;;;30.10;70.90;;;;;;1800830;77;21097;-70
2022/12/03 05:49:47;;;;;;;4.80;1.50;;;30.10;71.30;;;;;;1870030;76;21234;-70
2022/12/03 05:52:19;;;;;;;2.52;1.70;;;30.20;70.80;;;;;;1913427;74;21158;-70
2022/12/03 05:54:50;;;;;;;4.90;1.87;;;30.20;70.70;;;;;;1905072;74;21418;-71
2022/12/03 05:57:21;;;;;;;2.95;1.62;;;30.30;71.30;;;;;;1907852;74;21704;-70
2022/12/03 05:59:52;;;;;;;3.20;1.90;;;30.40;71.00;;;;;;1905677;74;21251;-70
2022/12/03 06:02:22;;;;;;;3.02;1.80;;;30.40;70.40;;;;;;1892154;74;21103;-70
2022/12/03 06:04:54;;;;;;;3.27;1.98;;;30.50;70.10;;;;;;1907837;74;21240;-70
2022/12/03 06:07:25;;;;;;;4.80;1.87;;;30.60;70.20;;;;;;1906914;74;21122;-70
2022/12/03 06:09:56;;;;;;;4.20;2.20;;;30.60;70.10;;;;;;1896320;74;21209;-69
2022/12/03 06:12:27;;;;;;;3.00;1.85;;;30.70;70.00;;;;;;1886258;74;21154;-69
2022/12/03 06:14:58;;;;;;;3.85;1.90;;;30.80;69.50;;;;;;1914449;74;21661;-68
2022/12/03 06:17:29;;;;;;;4.10;2.20;;;30.80;70.00;;;;;;1909265;74;21186;-69
2022/12/03 06:20:00;;;;;;;2.85;1.70;;;30.90;69.20;;;;;;1873447;75;21115;-69
2022/12/03 06:22:31;;;;;;;3.00;1.80;;;31.00;69.40;;;;;;1854776;75;21108;-68
2022/12/03 06:25:01;;;;;;;3.85;1.70;;;31.00;69.00;;;;;;1854414;76;21142;-70
2022/12/03 06:27:38;;;;;;;4.65;3.08;;;31.00;69.20;;;;;;1835663;77;21244;-68
2022/12/03 06:30:10;;;;;;;2.55;1.40;;;31.00;68.60;;;;;;1825041;77;21183;-69
2022/12/03 06:32:43;;;;;;;5.10;1.82;;;31.00;68.40;;;;;;1843727;76;21210;-69
2022/12/03 06:35:14;;;;;;;2.45;1.42;;;31.00;69.50;;;;;;1829844;77;21201;-69
2022/12/03 06:37:45;;;;;;;3.60;1.25;;;31.00;69.50;;;;;;1852486;75;21264;-69
2022/12/03 06:40:16;;;;;;;2.67;1.40;;;31.10;68.80;;;;;;1824507;77;21155;-68
2022/12/03 06:42:46;;;;;;;2.98;1.25;;;31.10;69.00;;;;;;1808755;77;21141;-68
2022/12/03 06:45:17;;;;;;;2.58;1.47;;;31.10;68.30;;;;;;1827763;77;21245;-69
2022/12/03 06:47:48;;;;;;;4.22;1.67;;;31.00;68.50;;;;;;1892119;75;21129;-70
2022/12/03 06:50:19;;;;;;;2.27;1.07;;;31.00;68.80;;;;;;1894776;74;21949;-69
2022/12/03 06:52:51;;;;;;;3.65;1.30;;;31.00;67.70;;;;;;1890411;74;21074;-70
2022/12/03 06:55:23;;;;;;;4.22;1.57;;;31.00;69.10;;;;;;1904649;74;21141;-69
2022/12/03 06:57:59;;;;;;;3.55;1.60;;;31.10;68.50;;;;;;1900052;74;21228;-68
2022/12/03 07:00:36;;;;;;;1.92;1.10;;;31.10;68.10;;;;;;1849979;75;21626;-69
2022/12/03 07:03:07;;;;;;;4.50;1.15;;;31.10;67.60;;;;;;1861449;76;21681;-70
2022/12/03 07:05:38;;;;;;;2.70;1.40;;;31.20;68.10;;;;;;1861664;75;21158;-69
2022/12/03 07:08:09;;;;;;;3.17;1.42;;;31.20;67.90;;;;;;1850125;75;21154;-68
2022/12/03 07:10:40;;;;;;;3.33;1.45;;;31.20;67.90;;;;;;1846051;76;21134;-70
2022/12/03 07:13:10;;;;;;;2.35;1.22;;;31.10;68.30;;;;;;1864045;75;21083;-68
2022/12/03 07:15:42;;;;;;;2.15;1.07;;;31.10;67.60;;;;;;1839830;75;21286;-70
2022/12/03 07:18:13;;;;;;;3.05;1.20;;;31.00;68.60;;;;;;1883708;75;21170;-70
2022/12/03 07:20:53;;;;;;;3.20;1.22;;;31.10;68.70;;;;;;1879244;74;21143;-70
2022/12/03 07:23:24;;;;;;;7.50;2.85;;;31.00;68.90;;;;;;1863448;75;21243;-69
2022/12/03 07:25:56;;;;;;;3.65;1.45;;;31.00;69.10;;;;;;1895603;74;21420;-68
2022/12/03 07:28:29;;;;;;;3.22;1.25;;;30.90;69.40;;;;;;1880581;74;21212;-68
2022/12/03 07:31:00;;;;;;;2.30;1.27;;;30.90;68.90;;;;;;1881091;75;21170;-69
2022/12/03 07:33:31;;;;;;;3.83;1.22;;;30.90;68.70;;;;;;1893563;75;21122;-68
2022/12/03 07:36:10;;;;;;;2.25;0.90;;;30.80;68.90;;;;;;1889738;75;21674;-68
2022/12/03 07:38:37;;;;;;;2.62;1.37;;;30.80;69.50;;;;;;1819349;77;21246;-70
2022/12/03 07:41:08;;;;;;;1.92;1.10;;;30.80;69.60;;;;;;1840757;77;21666;-69
2022/12/03 07:43:43;;;;;;;3.47;1.25;;;30.80;68.90;;;;;;1809709;78;21992;-69
2022/12/03 07:46:15;;;;;;;2.58;1.40;;;30.90;69.00;;;;;;1878709;75;21193;-68
2022/12/03 07:48:46;;;;;;;3.40;1.92;;;30.80;69.00;;;;;;1837559;76;21105;-69
2022/12/03 07:51:18;;;;;;;2.40;1.35;;;30.80;69.00;;;;;;1887488;75;21095;-69
2022/12/03 07:53:52;;;;;;;3.12;1.30;;;30.80;68.80;;;;;;1845655;76;21864;-69
2022/12/03 07:56:23;;;;;;;3.20;1.40;;;30.80;68.90;;;;;;1901691;74;21220;-69
2022/12/03 07:58:54;;;;;;;3.08;1.65;;;30.80;69.30;;;;;;1894361;75;21134;-70
2022/12/03 08:01:25;;;;;;;4.70;2.02;;;30.80;68.30;;;;;;1888695;75;22070;-69
2022/12/03 08:03:56;;;;;;;2.65;1.70;;;30.80;68.70;;;;;;1845874;76;21281;-70
2022/12/03 08:06:27;;;;;;;2.40;1.52;;;30.80;68.80;;;;;;1841311;76;21793;-70
2022/12/03 08:08:58;;;;;;;3.72;1.60;;;30.80;69.10;;;;;;1846059;76;21130;-69
2022/12/03 08:11:29;;;;;;;4.12;1.55;;;30.70;68.60;;;;;;1866424;75;21657;-69
2022/12/03 08:14:05;;;;;;;3.45;1.80;;;30.80;69.00;;;;;;1843379;77;21138;-68
2022/12/03 08:16:34;;;;;;;2.42;1.60;;;30.70;69.40;;;;;;1826484;77;21668;-68
2022/12/03 08:19:13;;;;;;;4.22;1.80;;;30.60;69.60;;;;;;1889425;74;21732;-69
2022/12/03 08:21:44;;;;;;;2.87;1.40;;;30.70;70.10;;;;;;1900289;74;21119;-69
2022/12/03 08:24:17;;;;;;;4.33;1.85;;;30.60;69.10;;;;;;1876037;74;21528;-68
2022/12/03 08:26:59;;;;;;;3.25;1.72;;;30.60;69.70;;;;;;1892590;75;21776;-68
2022/12/03 08:29:32;;;;;;;2.33;1.50;;;30.50;69.70;;;;;;1893309;74;21134;-68
2022/12/03 08:32:08;;;;;;;7.85;2.30;;;30.50;69.90;;;;;;1882049;74;21663;-70
2022/12/03 08:34:44;;;;;;;2.85;1.35;;;30.50;70.20;;;;;;1889675;74;21141;-69
2022/12/03 08:37:17;;;;;;;5.60;1.75;;;30.40;70.50;;;;;;1891912;74;21166;-69
2022/12/03 08:39:50;;;;;;;3.10;1.25;;;30.40;70.30;;;;;;1894250;74;21733;-69
2022/12/03 08:42:40;;;;;;;3.58;1.50;;;30.30;70.30;;;;;;1882946;74;21135;-69
2022/12/03 08:45:45;;;;;;;4.20;1.67;;;30.30;70.30;;;;;;1879706;74;21155;-69
2022/12/03 08:48:20;;;;;;;4.80;1.85;;;30.30;70.30;;;;;;1889182;74;21216;-68
2022/12/03 08:50:51;;;;;;;3.30;1.47;;;30.20;70.60;;;;;;1845310;77;21189;-69
2022/12/03 08:53:30;;;;;;;2.12;1.25;;;30.20;70.90;;;;;;1887142;74;21150;-69
2022/12/03 08:56:20;;;;;;;2.05;0.93;;;30.20;70.70;;;;;;1889593;74;21146;-71
2022/12/03 08:58:55;;;;;;;3.75;1.20;;;30.10;70.80;;;;;;1897729;74;21067;-69
2022/12/03 09:01:44;;;;;;;3.83;1.52;;;30.10;71.00;;;;;;1888628;74;21145;-70
2022/12/03 09:04:33;;;;;;;5.85;1.20;;;30.00;70.80;;;;;;1879775;74;21151;-69
2022/12/03 09:07:06;;;;;;;3.75;1.65;;;30.10;71.10;;;;;;1867148;75;21606;-70
2022/12/03 09:09:37;;;;;;;4.67;1.40;;;30.10;70.90;;;;;;1895766;74;21169;-69
2022/12/03 09:12:08;;;;;;;5.08;1.17;;;30.20;70.90;;;;;;1895530;74;21169;-70
2022/12/03 09:14:39;;;;;;;2.40;1.07;;;30.20;70.70;;;;;;1899694;74;21200;-70
2022/12/03 09:17:10;;;;;;;3.40;1.07;;;30.20;70.80;;;;;;1883455;75;21216;-70
2022/12/03 09:19:43;;;;;;;2.92;1.40;;;30.20;70.60;;;;;;1875381;75;21213;-70
2022/12/03 09:22:16;;;;;;;7.62;3.20;;;30.20;70.90;;;;;;1844604;76;21144;-69
2022/12/03 09:27:37;;;;;;;3.35;1.15;;;30.20;70.90;;;;;;1866494;74;21211;-68
2022/12/03 09:30:09;;;;;;;3.40;1.10;;;30.20;70.90;;;;;;1853818;74;21676;-68
2022/12/03 09:32:43;;;;;;;3.05;1.32;;;30.20;71.20;;;;;;1875295;75;21092;-69
2022/12/03 09:35:13;;;;;;;6.60;1.32;;;30.20;71.20;;;;;;1874387;75;21170;-69
2022/12/03 09:37:46;;;;;;;4.83;1.85;;;30.20;72.20;;;;;;1866993;75;21593;-70
2022/12/03 09:40:17;;;;;;;2.33;1.10;;;30.10;72.10;;;;;;1867683;75;21225;-70
2022/12/03 09:42:48;;;;;;;2.45;1.30;;;30.10;72.30;;;;;;1882746;75;21559;-70
2022/12/03 09:45:19;;;;;;;3.25;1.30;;;30.00;72.50;;;;;;1864353;75;21285;-68
2022/12/03 09:47:51;;;;;;;4.17;1.47;;;30.00;72.80;;;;;;1862586;75;21171;-68
2022/12/03 09:50:33;;;;;;;2.85;1.47;;;29.90;73.00;;;;;;1867536;76;21610;-68
2022/12/03 09:53:04;;;;;;;2.45;1.30;;;29.90;73.20;;;;;;1861432;76;21216;-70
2022/12/03 09:55:35;;;;;;;2.50;1.30;;;29.80;73.20;;;;;;1853452;76;21166;-68
2022/12/03 09:58:08;;;;;;;3.47;1.40;;;29.80;73.50;;;;;;1879848;75;21182;-69
2022/12/03 10:00:39;;;;;;;2.25;1.37;;;29.80;73.80;;;;;;1883814;74;21258;-69
2022/12/03 10:03:12;;;;;;;3.70;1.70;;;29.80;74.10;;;;;;1823105;76;21200;-68
2022/12/03 10:05:43;;;;;;;4.10;1.50;;;29.70;74.10;;;;;;1850143;76;21143;-69
2022/12/03 10:08:21;;;;;;;5.67;1.87;;;29.70;74.30;;;;;;1868884;74;21057;-68
2022/12/03 10:10:55;;;;;;;5.12;2.17;;;29.70;74.60;;;;;;1879475;74;21190;-68
2022/12/03 10:13:29;;;;;;;5.55;2.20;;;29.60;74.60;;;;;;1886617;74;21245;-68
2022/12/03 10:16:01;;;;;;;4.55;2.10;;;29.60;74.80;;;;;;1864653;75;21194;-69
2022/12/03 10:18:52;;;;;;;6.40;2.50;;;29.60;74.80;;;;;;1877686;75;21174;-69
2022/12/03 10:21:38;;;;;;;5.45;2.40;;;29.60;74.80;;;;;;1900670;74;21143;-69
2022/12/03 10:24:21;;;;;;;4.53;2.65;;;29.50;75.80;;;;;;1907602;74;21135;-69
2022/12/03 10:26:54;;;;;;;8.55;2.37;;;29.50;74.90;;;;;;1869220;75;21133;-69
2022/12/03 10:29:30;;;;;;;6.83;2.90;;;29.40;75.00;;;;;;1884933;74;21700;-71
2022/12/03 10:32:08;;;;;;;4.70;2.00;;;29.40;75.00;;;;;;1889327;74;21240;-68
2022/12/03 10:37:23;;;;;;;4.05;2.40;;;29.40;75.40;;;;;;1901313;74;21099;-69
2022/12/03 10:40:12;;;;;;;6.85;2.72;;;29.40;75.40;;;;;;1881084;74;21208;-70
2022/12/03 10:42:43;;;;;;;18.45;3.08;;;29.30;75.50;;;;;;1883658;74;21152;-70
2022/12/03 10:45:24;;;;;;;14.23;2.75;;;29.30;75.70;;;;;;1883891;74;21616;-69
2022/12/03 10:48:16;;;;;;;7.83;2.22;;;29.30;75.80;;;;;;1895489;74;21189;-70
2022/12/03 10:50:52;;;;;;;7.22;2.30;;;29.30;76.00;;;;;;1912461;74;21068;-69
2022/12/03 10:53:29;;;;;;;6.60;2.20;;;29.20;75.90;;;;;;1865303;75;21155;-71
2022/12/03 10:56:03;;;;;;;8.85;3.08;;;29.20;76.10;;;;;;1876726;74;21222;-71
2022/12/03 10:58:37;;;;;;;8.75;3.00;;;29.20;76.30;;;;;;1891215;73;21598;-69
2022/12/03 11:01:17;;;;;;;6.83;2.62;;;29.20;76.40;;;;;;1838332;77;21158;-69
2022/12/03 11:03:49;;;;;;;18.82;3.35;;;29.20;76.60;;;;;;1846397;77;21599;-69
2022/12/03 11:06:24;;;;;;;35.70;5.75;;;29.10;76.70;;;;;;1914221;74;21720;-68
2022/12/03 11:08:56;;;;;;;9.85;3.10;;;29.10;76.90;;;;;;1844684;76;21590;-70
2022/12/03 11:11:31;;;;;;;10.72;3.55;;;29.10;77.30;;;;;;1854512;76;21674;-70
2022/12/03 11:14:05;;;;;;;7.20;3.33;;;29.10;77.70;;;;;;1885224;74;21539;-69
2022/12/03 11:16:44;;;;;;;6.85;3.37;;;29.00;77.40;;;;;;1868938;75;21209;-69
2022/12/03 11:19:20;;;;;;;8.40;4.35;;;29.00;77.40;;;;;;1910513;73;21174;-69
2022/12/03 11:22:10;;;;;;;6.72;3.87;;;29.00;77.80;;;;;;1871072;75;21081;-70
2022/12/03 11:24:42;;;;;;;10.40;4.50;;;29.00;77.90;;;;;;1844109;76;21236;-68
2022/12/03 11:27:17;;;;;;;7.67;4.50;;;29.00;78.10;;;;;;1912081;74;21170;-69
2022/12/03 11:29:59;;;;;;;12.10;4.30;;;28.90;78.30;;;;;;1881673;74;21141;-70
2022/12/03 11:32:45;;;;;;;11.18;5.60;;;28.90;78.50;;;;;;1906868;73;21157;-70
2022/12/03 11:35:33;;;;;;;16.57;6.97;;;28.90;78.60;;;;;;1879851;74;21155;-68
2022/12/03 11:38:25;;;;;;;20.40;6.10;;;28.90;79.00;;;;;;1903866;74;21135;-69
2022/12/03 11:41:14;;;;;;;10.73;4.97;;;28.90;78.90;;;;;;1899430;73;21217;-68
2022/12/03 11:44:00;;;;;;;8.85;5.90;;;28.90;78.90;;;;;;1906456;73;21703;-67
2022/12/03 11:46:39;;;;;;;14.10;7.08;;;28.80;79.00;;;;;;1910490;73;21204;-69
2022/12/03 11:49:26;;;;;;;13.15;7.00;;;28.90;79.10;;;;;;1905796;74;21096;-70
2022/12/03 11:51:58;;;;;;;12.25;7.03;;;28.80;79.10;;;;;;1835145;77;21161;-69
2022/12/03 11:54:33;;;;;;;10.45;6.22;;;28.80;79.20;;;;;;1889028;75;21080;-69
2022/12/03 11:57:05;;;;;;;12.55;7.87;;;28.80;79.40;;;;;;1902206;74;21187;-69
2022/12/03 11:59:41;;;;;;;11.15;7.40;;;28.80;79.40;;;;;;1873037;74;21229;-69
2022/12/03 12:02:23;;;;;;;14.23;8.80;;;28.80;79.60;;;;;;1890983;74;21062;-68
2022/12/03 12:04:59;;;;;;;19.95;8.88;;;28.70;79.80;;;;;;1896127;74;21111;-70
2022/12/03 12:07:36;;;;;;;13.10;7.62;;;28.70;79.90;;;;;;1901455;73;21737;-69
2022/12/03 12:10:12;;;;;;;13.32;7.60;;;28.70;80.00;;;;;;1891014;75;21132;-71
2022/12/03 12:12:44;;;;;;;18.10;7.87;;;28.70;80.20;;;;;;1884844;75;21138;-70
2022/12/03 12:15:45;;;;;;;16.60;7.22;;;28.70;80.10;;;;;;1883458;75;21167;-67
2022/12/03 12:18:36;;;;;;;10.88;6.67;;;28.60;80.10;;;;;;1894830;74;21148;-70
2022/12/03 12:21:46;;;;;;;13.93;6.85;;;28.70;80.20;;;;;;1873502;74;21213;-68
2022/12/03 12:24:37;;;;;;;12.93;6.83;;;28.60;80.20;;;;;;1900930;74;21131;-68
2022/12/03 12:27:23;;;;;;;14.23;7.80;;;28.60;80.30;;;;;;1905301;74;21490;-68
2022/12/03 12:29:56;;;;;;;14.40;7.47;;;28.60;80.70;;;;;;1827474;77;21233;-70
2022/12/03 12:32:31;;;;;;;13.55;6.33;;;28.50;80.40;;;;;;1907184;74;21171;-69
2022/12/03 12:35:26;;;;;;;10.50;5.83;;;28.60;80.70;;;;;;1891930;74;21192;-69
2022/12/03 12:38:10;;;;;;;11.48;6.37;;;28.50;80.70;;;;;;1881470;75;21130;-69
2022/12/03 12:40:44;;;;;;;10.90;6.60;;;28.50;80.60;;;;;;1885529;75;21128;-69
2022/12/03 12:43:31;;;;;;;13.62;6.40;;;28.50;80.60;;;;;;1872562;75;21111;-69
2022/12/03 12:46:03;;;;;;;14.10;7.28;;;28.50;80.80;;;;;;1882859;74;21169;-70
2022/12/03 12:48:35;;;;;;;11.28;6.50;;;28.40;81.00;;;;;;1881957;74;21723;-68
2022/12/03 12:51:13;;;;;;;13.72;7.35;;;28.40;81.10;;;;;;1896240;74;21120;-69
2022/12/03 12:53:46;;;;;;;13.13;6.75;;;28.40;81.40;;;;;;1906343;74;21567;-67
2022/12/03 12:56:33;;;;;;;11.25;6.65;;;28.40;81.60;;;;;;1909745;74;21103;-69
2022/12/03 12:59:03;;;;;;;10.75;6.78;;;28.40;81.80;;;;;;1902770;74;21119;-69
2022/12/03 13:01:37;;;;;;;11.53;6.90;;;28.40;81.90;;;;;;1916417;74;21142;-69
2022/12/03 13:04:17;;;;;;;13.40;7.17;;;28.40;82.20;;;;;;1859827;76;21126;-68
2022/12/03 13:06:50;;;;;;;12.13;7.40;;;28.30;82.40;;;;;;1879215;75;21236;-69
2022/12/03 13:09:22;;;;;;;13.55;6.97;;;28.30;82.40;;;;;;1894566;74;21197;-68
2022/12/03 13:12:02;;;;;;;12.47;7.60;;;28.30;82.70;;;;;;1913138;74;21162;-69
2022/12/03 13:14:37;;;;;;;15.40;7.80;;;28.30;82.90;;;;;;1880618;74;21154;-69
2022/12/03 13:17:24;;;;;;;14.87;8.28;;;28.30;83.00;;;;;;1895517;74;21134;-68
2022/12/03 13:19:53;;;;;;;13.55;7.12;;;28.20;83.30;;;;;;1910534;74;21170;-69
2022/12/03 13:22:26;;;;;;;12.10;7.05;;;28.20;83.30;;;;;;1891908;74;21080;-68
2022/12/03 13:24:58;;;;;;;14.93;7.17;;;28.20;83.60;;;;;;1869783;75;21177;-68
2022/12/03 13:27:31;;;;;;;12.75;7.37;;;28.20;83.70;;;;;;1897281;74;21083;-70
2022/12/03 13:30:13;;;;;;;11.55;6.62;;;28.20;83.80;;;;;;1908559;74;21091;-70
2022/12/03 13:32:44;;;;;;;10.93;6.80;;;28.20;83.90;;;;;;1885844;74;21216;-69
2022/12/03 13:35:17;;;;;;;12.07;6.92;;;28.10;83.90;;;;;;1901889;74;21612;-70
2022/12/03 13:37:48;;;;;;;16.25;8.50;;;28.10;84.00;;;;;;1906655;74;21162;-69
2022/12/03 13:40:29;;;;;;;14.85;8.23;;;28.10;84.90;;;;;;1898767;74;21137;-69
2022/12/03 13:43:00;;;;;;;12.80;8.13;;;28.10;84.10;;;;;;1908034;74;21187;-69